Time;durP1;ratioP1;P1;durP2;ratioP2;P2;SDS_P1;SDS_P2;PMS_P1;PMS_P2;Temp;Humidity;BMP_temperature;BMP_pressure;BME280_temperature;BME280_humidity;BME280_pressure;Samples;Min_cycle;Max_cycle;Signal;HPM_P1;HPM_P2
2023/05/19 00:01:06;;;;;;;13.57;4.40;;;;;;;;;;5073214;28;20044;-66
2023/05/19 00:03:33;;;;;;;19.15;5.07;;;;;;;;;;5085891;28;20432;-66
2023/05/19 00:06:01;;;;;;;11.27;5.22;;;;;;;;;;5069984;28;20549;-66
2023/05/19 00:08:31;;;;;;;13.52;4.78;;;;;;;;;;5087250;28;20035;-66
2023/05/19 00:10:57;;;;;;;16.55;5.20;;;;;;;;;;5090356;28;20051;-66
2023/05/19 00:13:24;;;;;;;11.20;4.40;;;;;;;;;;5086627;28;20050;-66
2023/05/19 00:15:50;;;;;;;9.35;4.35;;;;;;;;;;5066622;28;20047;-66
2023/05/19 00:18:16;;;;;;;11.15;4.40;;;;;;;;;;5087980;28;20058;-66
2023/05/19 00:20:43;;;;;;;11.35;4.85;;;;;;;;;;5089449;28;20131;-66
2023/05/19 00:23:10;;;;;;;9.10;4.30;;;;;;;;;;5067515;28;20051;-67
2023/05/19 00:25:36;;;;;;;13.18;4.45;;;;;;;;;;5067195;28;20051;-66
2023/05/19 00:28:02;;;;;;;10.05;4.18;;;;;;;;;;5057197;28;20079;-66
2023/05/19 00:30:29;;;;;;;9.18;4.60;;;;;;;;;;5087741;28;20071;-66
2023/05/19 00:32:55;;;;;;;12.55;4.47;;;;;;;;;;5074391;28;20048;-67
2023/05/19 00:35:23;;;;;;;11.55;4.25;;;;;;;;;;5069667;28;20056;-66
2023/05/19 00:37:49;;;;;;;10.68;4.35;;;;;;;;;;5067975;28;20135;-66
2023/05/19 00:40:15;;;;;;;12.88;4.50;;;;;;;;;;5088314;28;20040;-66
2023/05/19 00:42:41;;;;;;;9.05;4.28;;;;;;;;;;5070246;28;20051;-66
2023/05/19 00:45:08;;;;;;;12.50;4.65;;;;;;;;;;5088667;28;20035;-67
2023/05/19 00:47:34;;;;;;;12.05;4.68;;;;;;;;;;5068615;28;20054;-66
2023/05/19 00:50:00;;;;;;;10.40;4.60;;;;;;;;;;5085750;28;20409;-66
2023/05/19 00:52:27;;;;;;;11.48;4.35;;;;;;;;;;5070347;28;20402;-66
2023/05/19 00:54:53;;;;;;;7.78;4.13;;;;;;;;;;5086082;28;20449;-66
2023/05/19 00:57:20;;;;;;;9.27;4.60;;;;;;;;;;5074648;28;20035;-66
2023/05/19 00:59:47;;;;;;;11.52;4.97;;;;;;;;;;5085677;28;20170;-66
2023/05/19 01:02:13;;;;;;;9.30;4.43;;;;;;;;;;5064827;28;20036;-67
2023/05/19 01:04:40;;;;;;;9.98;5.07;;;;;;;;;;5064590;28;20072;-67
2023/05/19 01:07:07;;;;;;;9.70;4.70;;;;;;;;;;5065931;28;20036;-66
2023/05/19 01:09:33;;;;;;;10.40;4.65;;;;;;;;;;5086544;28;20403;-66
2023/05/19 01:12:01;;;;;;;9.02;5.10;;;;;;;;;;5090193;28;20120;-66
2023/05/19 01:14:28;;;;;;;8.77;4.35;;;;;;;;;;5096483;28;20047;-66
2023/05/19 01:17:04;;;;;;;6.28;3.42;;;;;;;;;;5074357;28;20132;-66
2023/05/19 01:19:42;;;;;;;10.25;4.18;;;;;;;;;;5075383;28;20064;-66
2023/05/19 01:22:12;;;;;;;9.93;4.28;;;;;;;;;;5075572;28;20047;-66
2023/05/19 01:24:46;;;;;;;11.32;4.50;;;;;;;;;;5094485;28;20416;-66
2023/05/19 01:27:13;;;;;;;13.40;5.82;;;;;;;;;;5073947;28;20040;-66
2023/05/19 01:29:42;;;;;;;10.07;4.35;;;;;;;;;;5076513;28;20048;-66
2023/05/19 01:32:08;;;;;;;7.72;4.43;;;;;;;;;;5092413;28;20455;-66
2023/05/19 01:34:38;;;;;;;11.80;4.95;;;;;;;;;;5071774;28;20052;-67
2023/05/19 01:37:04;;;;;;;13.30;5.60;;;;;;;;;;5072925;28;20043;-66
2023/05/19 01:39:31;;;;;;;17.15;5.30;;;;;;;;;;5074710;28;21298;-66
2023/05/19 01:41:57;;;;;;;9.90;5.32;;;;;;;;;;5075756;28;20123;-66
2023/05/19 01:44:24;;;;;;;10.27;4.63;;;;;;;;;;5092624;28;20075;-66
2023/05/19 01:46:50;;;;;;;9.52;4.20;;;;;;;;;;5075007;28;20036;-66
2023/05/19 01:49:16;;;;;;;7.30;3.78;;;;;;;;;;5073170;28;20131;-66
2023/05/19 01:51:42;;;;;;;7.78;3.53;;;;;;;;;;5079671;28;20070;-66
2023/05/19 01:54:08;;;;;;;8.13;4.55;;;;;;;;;;5076788;28;20557;-66
2023/05/19 01:56:41;;;;;;;9.65;5.30;;;;;;;;;;5093187;28;20042;-66
2023/05/19 01:59:14;;;;;;;13.60;6.30;;;;;;;;;;5093467;28;20042;-66
2023/05/19 02:01:46;;;;;;;10.40;4.97;;;;;;;;;;5073418;28;20459;-66
2023/05/19 02:04:31;;;;;;;15.52;4.95;;;;;;;;;;5091837;28;20304;-66
2023/05/19 02:07:03;;;;;;;13.98;5.65;;;;;;;;;;5089804;28;20051;-66
2023/05/19 02:09:50;;;;;;;15.88;5.32;;;;;;;;;;5074579;28;20903;-66
2023/05/19 02:12:19;;;;;;;9.75;5.00;;;;;;;;;;5094150;28;20067;-66
2023/05/19 02:15:00;;;;;;;7.80;3.35;;;;;;;;;;5092664;28;20391;-66
2023/05/19 02:17:28;;;;;;;9.13;4.15;;;;;;;;;;5071274;28;20043;-66
2023/05/19 02:19:55;;;;;;;11.55;4.47;;;;;;;;;;5082375;28;20207;-66
2023/05/19 02:22:21;;;;;;;13.40;4.43;;;;;;;;;;5079175;28;20044;-66
2023/05/19 02:24:50;;;;;;;9.13;4.47;;;;;;;;;;5070994;28;20054;-66
2023/05/19 02:27:16;;;;;;;11.20;4.50;;;;;;;;;;5096566;27;20490;-66
2023/05/19 02:29:42;;;;;;;9.05;4.18;;;;;;;;;;5095668;27;20051;-66
2023/05/19 02:32:10;;;;;;;13.07;3.97;;;;;;;;;;5095403;27;20040;-66
2023/05/19 02:34:36;;;;;;;7.80;3.78;;;;;;;;;;5093748;27;20553;-66
2023/05/19 02:37:03;;;;;;;10.75;3.75;;;;;;;;;;5095617;27;20052;-66
2023/05/19 02:39:33;;;;;;;13.60;4.78;;;;;;;;;;5075328;27;20693;-66
2023/05/19 02:42:00;;;;;;;13.55;4.20;;;;;;;;;;5096536;27;20048;-66
2023/05/19 02:44:26;;;;;;;13.27;5.70;;;;;;;;;;5093866;27;20075;-66
2023/05/19 02:46:52;;;;;;;8.90;4.47;;;;;;;;;;5077596;27;20122;-66
2023/05/19 02:49:18;;;;;;;11.02;4.32;;;;;;;;;;5075875;28;20171;-66
2023/05/19 02:51:44;;;;;;;14.00;4.95;;;;;;;;;;5076423;28;20102;-65
2023/05/19 02:54:10;;;;;;;11.52;4.60;;;;;;;;;;5093545;27;20098;-66
2023/05/19 02:56:37;;;;;;;11.82;4.40;;;;;;;;;;5093379;27;20044;-66
2023/05/19 02:59:03;;;;;;;19.40;5.80;;;;;;;;;;5077809;27;20387;-66
2023/05/19 03:01:31;;;;;;;18.92;4.72;;;;;;;;;;5074992;28;20411;-66
2023/05/19 03:03:57;;;;;;;11.45;4.68;;;;;;;;;;5093509;27;20070;-66
2023/05/19 03:06:23;;;;;;;8.35;4.30;;;;;;;;;;5095712;27;21832;-66
2023/05/19 03:08:50;;;;;;;7.28;3.72;;;;;;;;;;5076793;27;20500;-66
2023/05/19 03:11:17;;;;;;;11.82;4.78;;;;;;;;;;5076772;27;20050;-66
2023/05/19 03:13:43;;;;;;;10.00;4.78;;;;;;;;;;5095525;27;20047;-66
2023/05/19 03:16:10;;;;;;;14.60;4.75;;;;;;;;;;5097769;27;20043;-66
2023/05/19 03:18:37;;;;;;;9.82;4.35;;;;;;;;;;5075262;28;20447;-66
2023/05/19 03:21:03;;;;;;;10.43;4.00;;;;;;;;;;5096463;27;20138;-66
2023/05/19 03:23:29;;;;;;;8.77;4.03;;;;;;;;;;5077913;28;20101;-66
2023/05/19 03:25:56;;;;;;;9.30;3.58;;;;;;;;;;5096926;28;20093;-66
2023/05/19 03:28:22;;;;;;;20.33;4.70;;;;;;;;;;5094158;27;20047;-66
2023/05/19 03:30:49;;;;;;;7.90;3.80;;;;;;;;;;5093246;27;20046;-66
2023/05/19 03:33:16;;;;;;;9.93;3.95;;;;;;;;;;5072899;27;20059;-66
2023/05/19 03:35:43;;;;;;;9.02;3.20;;;;;;;;;;5076116;28;20073;-66
2023/05/19 03:38:09;;;;;;;15.32;3.70;;;;;;;;;;5073222;28;20488;-66
2023/05/19 03:40:35;;;;;;;9.10;3.60;;;;;;;;;;5081020;28;21567;-66
2023/05/19 03:43:01;;;;;;;9.20;3.58;;;;;;;;;;5085261;28;20032;-66
2023/05/19 03:45:28;;;;;;;14.95;4.32;;;;;;;;;;5095218;27;20119;-66
2023/05/19 03:47:55;;;;;;;9.43;3.83;;;;;;;;;;5090882;27;20105;-66
2023/05/19 03:50:21;;;;;;;9.80;3.70;;;;;;;;;;5094665;27;20073;-66
2023/05/19 03:52:47;;;;;;;8.50;4.13;;;;;;;;;;5097189;27;20451;-66
2023/05/19 03:55:15;;;;;;;9.07;3.72;;;;;;;;;;5097908;27;20036;-66
2023/05/19 03:57:43;;;;;;;14.82;3.85;;;;;;;;;;5076248;28;20378;-66
2023/05/19 04:00:10;;;;;;;10.50;3.67;;;;;;;;;;5091419;27;20047;-66
2023/05/19 04:02:36;;;;;;;12.82;3.40;;;;;;;;;;5071980;28;21165;-66
2023/05/19 04:05:03;;;;;;;7.95;3.50;;;;;;;;;;5071536;27;20036;-65
2023/05/19 04:07:30;;;;;;;14.57;3.97;;;;;;;;;;5072070;28;20354;-65
2023/05/19 04:09:56;;;;;;;14.82;3.90;;;;;;;;;;5090187;27;20050;-66
2023/05/19 04:12:22;;;;;;;10.80;4.72;;;;;;;;;;5070558;28;20056;-66
2023/05/19 04:14:49;;;;;;;17.48;4.78;;;;;;;;;;5094083;28;20043;-66
2023/05/19 04:17:15;;;;;;;13.55;4.88;;;;;;;;;;5075966;28;20032;-67
2023/05/19 04:19:41;;;;;;;16.75;5.05;;;;;;;;;;5060862;28;20687;-66
2023/05/19 04:22:07;;;;;;;13.68;5.40;;;;;;;;;;5090919;28;20143;-66
2023/05/19 04:24:34;;;;;;;16.35;5.40;;;;;;;;;;5073907;28;20051;-66
2023/05/19 04:27:02;;;;;;;18.95;5.18;;;;;;;;;;5092207;28;20067;-66
2023/05/19 04:29:28;;;;;;;17.88;5.13;;;;;;;;;;5091208;28;20048;-66
2023/05/19 04:31:56;;;;;;;16.40;5.72;;;;;;;;;;5075674;28;20105;-66
2023/05/19 04:34:22;;;;;;;20.80;5.95;;;;;;;;;;5076207;28;20680;-66
2023/05/19 04:36:48;;;;;;;12.32;5.20;;;;;;;;;;5069350;28;20052;-66
2023/05/19 04:39:15;;;;;;;22.02;5.93;;;;;;;;;;5072813;28;22337;-66
2023/05/19 04:41:43;;;;;;;18.33;5.72;;;;;;;;;;5066540;28;20495;-66
2023/05/19 04:44:09;;;;;;;20.42;5.68;;;;;;;;;;5071170;28;20151;-66
2023/05/19 04:46:36;;;;;;;18.83;5.15;;;;;;;;;;5071221;28;20048;-66
2023/05/19 04:49:02;;;;;;;19.65;6.18;;;;;;;;;;5070485;28;20491;-66
2023/05/19 04:51:30;;;;;;;17.38;6.50;;;;;;;;;;5072738;28;20580;-66
2023/05/19 04:53:56;;;;;;;18.83;6.22;;;;;;;;;;5072053;28;20113;-66
2023/05/19 04:56:22;;;;;;;13.55;6.32;;;;;;;;;;5073157;28;20732;-67
2023/05/19 04:58:49;;;;;;;16.80;6.05;;;;;;;;;;5078594;28;20123;-67
2023/05/19 05:01:15;;;;;;;22.67;6.22;;;;;;;;;;5072146;28;20033;-67
2023/05/19 05:03:42;;;;;;;20.65;6.57;;;;;;;;;;5077486;28;20553;-67
2023/05/19 05:06:08;;;;;;;18.27;7.15;;;;;;;;;;5071924;28;20444;-66
2023/05/19 05:08:36;;;;;;;22.63;7.18;;;;;;;;;;5073043;28;20566;-66
2023/05/19 05:11:02;;;;;;;20.73;6.38;;;;;;;;;;5077247;28;20040;-64
2023/05/19 05:13:29;;;;;;;20.80;6.20;;;;;;;;;;5071295;28;20052;-66
2023/05/19 05:15:55;;;;;;;22.02;6.47;;;;;;;;;;5072914;28;20041;-67
2023/05/19 05:18:21;;;;;;;22.50;5.95;;;;;;;;;;5071185;28;20053;-67
2023/05/19 05:20:48;;;;;;;18.02;6.07;;;;;;;;;;5067776;28;20110;-67
2023/05/19 05:23:15;;;;;;;24.77;7.82;;;;;;;;;;5076242;28;20037;-66
2023/05/19 05:25:42;;;;;;;21.02;6.28;;;;;;;;;;5080542;28;20528;-66
2023/05/19 05:28:08;;;;;;;22.52;6.38;;;;;;;;;;5079907;28;20051;-66
2023/05/19 05:30:34;;;;;;;19.95;6.50;;;;;;;;;;5073631;28;20048;-66
2023/05/19 05:33:00;;;;;;;18.27;6.30;;;;;;;;;;5076097;28;20491;-66
2023/05/19 05:35:27;;;;;;;20.65;6.70;;;;;;;;;;5083932;28;20044;-66
2023/05/19 05:37:53;;;;;;;19.25;6.55;;;;;;;;;;5094316;28;20051;-66
2023/05/19 05:40:19;;;;;;;18.85;6.65;;;;;;;;;;5078077;28;20055;-66
2023/05/19 05:42:45;;;;;;;20.08;7.53;;;;;;;;;;5077850;28;20449;-66
2023/05/19 05:45:12;;;;;;;17.30;7.05;;;;;;;;;;5095901;28;20138;-66
2023/05/19 05:47:40;;;;;;;14.25;6.55;;;;;;;;;;5074398;28;20052;-66
2023/05/19 05:50:06;;;;;;;15.85;6.45;;;;;;;;;;5077884;28;20406;-66
2023/05/19 05:52:33;;;;;;;15.05;5.75;;;;;;;;;;5076854;28;20032;-66
2023/05/19 05:55:00;;;;;;;18.75;6.60;;;;;;;;;;5075784;28;20052;-67
2023/05/19 05:57:29;;;;;;;18.25;6.88;;;;;;;;;;5074061;28;20071;-66
2023/05/19 05:59:55;;;;;;;23.52;6.45;;;;;;;;;;5097672;28;20044;-66
2023/05/19 06:02:21;;;;;;;20.77;5.97;;;;;;;;;;5078568;28;20109;-66
2023/05/19 06:04:48;;;;;;;17.25;6.75;;;;;;;;;;5076770;28;20655;-66
2023/05/19 06:07:14;;;;;;;13.45;5.80;;;;;;;;;;5073940;28;20040;-68
2023/05/19 06:09:40;;;;;;;18.00;6.03;;;;;;;;;;5076195;28;20048;-66
2023/05/19 06:12:07;;;;;;;13.63;5.30;;;;;;;;;;5097223;28;20051;-66
2023/05/19 06:14:33;;;;;;;21.27;5.68;;;;;;;;;;5079040;28;20044;-66
2023/05/19 06:16:59;;;;;;;15.05;5.78;;;;;;;;;;5100288;28;20130;-66
2023/05/19 06:19:25;;;;;;;15.25;5.63;;;;;;;;;;5078814;28;20046;-66
2023/05/19 06:21:51;;;;;;;14.77;5.22;;;;;;;;;;5076381;28;20047;-66
2023/05/19 06:24:17;;;;;;;15.25;5.30;;;;;;;;;;5077089;28;20052;-66
2023/05/19 06:26:44;;;;;;;12.88;5.13;;;;;;;;;;5094429;27;20040;-66
2023/05/19 06:29:10;;;;;;;15.60;5.90;;;;;;;;;;5076492;28;20043;-66
2023/05/19 06:31:36;;;;;;;15.93;5.63;;;;;;;;;;5076635;28;20082;-68
2023/05/19 06:34:02;;;;;;;12.73;5.50;;;;;;;;;;5080740;28;20056;-68
2023/05/19 06:36:28;;;;;;;11.88;4.95;;;;;;;;;;5078393;28;20328;-71
2023/05/19 06:38:55;;;;;;;11.90;4.80;;;;;;;;;;5087805;27;20377;-71
2023/05/19 06:41:21;;;;;;;11.18;4.25;;;;;;;;;;5082602;28;20357;-71
2023/05/19 06:43:47;;;;;;;18.92;5.82;;;;;;;;;;5088325;28;20145;-71
2023/05/19 06:46:16;;;;;;;16.75;5.25;;;;;;;;;;5101191;27;20047;-71
2023/05/19 06:48:42;;;;;;;13.13;4.65;;;;;;;;;;5082137;28;20048;-71
2023/05/19 06:51:09;;;;;;;13.63;5.55;;;;;;;;;;5081633;28;20036;-71
2023/05/19 06:53:35;;;;;;;13.30;4.32;;;;;;;;;;5086666;27;20454;-71
2023/05/19 06:56:01;;;;;;;11.68;4.18;;;;;;;;;;5089399;27;20047;-71
2023/05/19 06:58:27;;;;;;;9.27;3.97;;;;;;;;;;5065978;28;20377;-71
2023/05/19 07:00:53;;;;;;;14.25;4.75;;;;;;;;;;5078694;28;20044;-71
2023/05/19 07:03:20;;;;;;;10.15;3.53;;;;;;;;;;5083338;27;20036;-71
2023/05/19 07:05:46;;;;;;;12.52;4.50;;;;;;;;;;5080870;27;20055;-71
2023/05/19 07:08:12;;;;;;;10.30;3.65;;;;;;;;;;5073467;27;20449;-71
2023/05/19 07:10:38;;;;;;;12.32;3.72;;;;;;;;;;5082163;28;20518;-71
2023/05/19 07:13:04;;;;;;;11.98;3.33;;;;;;;;;;5083868;28;20388;-68
2023/05/19 07:15:30;;;;;;;12.73;3.53;;;;;;;;;;5097009;27;20122;-68
2023/05/19 07:17:58;;;;;;;12.23;3.72;;;;;;;;;;5093656;27;20100;-69
2023/05/19 07:20:24;;;;;;;8.68;3.45;;;;;;;;;;5075225;28;20073;-68
2023/05/19 07:22:50;;;;;;;12.57;3.35;;;;;;;;;;5096172;28;20690;-68
2023/05/19 07:25:16;;;;;;;9.43;3.30;;;;;;;;;;5094004;28;20369;-68
2023/05/19 07:27:42;;;;;;;6.78;3.28;;;;;;;;;;5094118;27;20051;-68
2023/05/19 07:30:09;;;;;;;15.07;3.05;;;;;;;;;;5074182;28;20055;-69
2023/05/19 07:32:35;;;;;;;7.07;3.25;;;;;;;;;;5082949;28;20051;-68
2023/05/19 07:35:01;;;;;;;10.00;4.13;;;;;;;;;;5064878;28;20083;-68
2023/05/19 07:37:27;;;;;;;8.88;2.95;;;;;;;;;;5093811;27;20048;-68
2023/05/19 07:39:54;;;;;;;15.63;3.45;;;;;;;;;;5092444;28;20562;-71
2023/05/19 07:42:20;;;;;;;9.68;2.90;;;;;;;;;;5092978;27;20043;-71
2023/05/19 07:44:46;;;;;;;13.73;3.78;;;;;;;;;;5081090;28;20059;-71
2023/05/19 07:47:12;;;;;;;7.63;3.10;;;;;;;;;;5072534;28;20044;-70
2023/05/19 07:49:38;;;;;;;10.55;3.35;;;;;;;;;;5075629;27;20085;-72
2023/05/19 07:52:05;;;;;;;15.63;3.95;;;;;;;;;;5096117;27;20093;-71
2023/05/19 07:54:31;;;;;;;9.82;3.35;;;;;;;;;;5071814;28;20085;-71
2023/05/19 07:56:57;;;;;;;11.05;2.80;;;;;;;;;;5057991;28;20055;-71
2023/05/19 07:59:23;;;;;;;9.93;4.22;;;;;;;;;;5069376;28;20082;-69
2023/05/19 08:01:49;;;;;;;10.98;3.50;;;;;;;;;;5072838;28;20190;-71
2023/05/19 08:04:16;;;;;;;8.95;3.05;;;;;;;;;;5075492;27;20036;-71
2023/05/19 08:06:43;;;;;;;10.13;3.38;;;;;;;;;;5059177;28;20481;-72
2023/05/19 08:09:09;;;;;;;10.52;3.25;;;;;;;;;;5095700;28;20063;-72
2023/05/19 08:11:35;;;;;;;9.57;3.22;;;;;;;;;;5072398;28;20044;-71
2023/05/19 08:14:02;;;;;;;8.75;3.38;;;;;;;;;;5074129;28;20051;-71
2023/05/19 08:16:28;;;;;;;8.45;2.90;;;;;;;;;;5074211;28;20629;-71
2023/05/19 08:18:54;;;;;;;10.07;3.83;;;;;;;;;;5092107;28;20093;-71
2023/05/19 08:21:21;;;;;;;8.60;2.60;;;;;;;;;;5074386;28;20629;-72
2023/05/19 08:23:47;;;;;;;7.50;3.03;;;;;;;;;;5075697;28;20055;-71
2023/05/19 08:26:13;;;;;;;11.38;3.30;;;;;;;;;;5073885;28;20096;-71
2023/05/19 08:28:40;;;;;;;10.05;3.53;;;;;;;;;;5072477;27;20056;-72
2023/05/19 08:31:06;;;;;;;13.38;2.83;;;;;;;;;;5075953;28;20048;-72
2023/05/19 08:33:32;;;;;;;9.18;3.20;;;;;;;;;;5071120;28;20036;-72
2023/05/19 08:35:58;;;;;;;11.70;3.70;;;;;;;;;;5061443;28;20054;-71
2023/05/19 08:38:25;;;;;;;12.82;4.13;;;;;;;;;;5095490;27;20082;-71
2023/05/19 08:40:51;;;;;;;15.82;4.57;;;;;;;;;;5074282;28;20050;-72
2023/05/19 08:43:17;;;;;;;18.92;6.15;;;;;;;;;;5076867;28;20112;-71
2023/05/19 08:45:46;;;;;;;8.88;2.92;;;;;;;;;;5074790;28;20045;-71
2023/05/19 08:48:13;;;;;;;13.85;4.97;;;;;;;;;;5073161;28;20569;-71
2023/05/19 08:50:41;;;;;;;10.30;3.70;;;;;;;;;;5092773;28;20044;-72
2023/05/19 08:53:10;;;;;;;13.88;4.07;;;;;;;;;;5092792;27;20130;-72
2023/05/19 08:55:39;;;;;;;8.90;4.28;;;;;;;;;;5078823;28;20158;-72
2023/05/19 08:58:06;;;;;;;12.93;3.78;;;;;;;;;;5073818;28;20406;-71
2023/05/19 09:00:33;;;;;;;12.77;4.55;;;;;;;;;;5072642;28;20513;-71
2023/05/19 09:03:00;;;;;;;12.10;4.75;;;;;;;;;;5074819;28;20081;-71
2023/05/19 09:05:26;;;;;;;9.82;3.47;;;;;;;;;;5072095;28;20036;-72
2023/05/19 09:07:52;;;;;;;8.93;2.95;;;;;;;;;;5093068;28;20126;-72
2023/05/19 09:10:19;;;;;;;40.60;5.45;;;;;;;;;;5075353;28;20511;-72
2023/05/19 09:12:46;;;;;;;8.27;3.17;;;;;;;;;;5096339;28;20050;-72
2023/05/19 09:15:16;;;;;;;11.18;4.00;;;;;;;;;;5076245;28;20442;-72
2023/05/19 09:17:43;;;;;;;7.95;3.13;;;;;;;;;;5057026;28;20372;-69
2023/05/19 09:20:10;;;;;;;17.90;3.83;;;;;;;;;;5095229;28;20503;-68
2023/05/19 09:22:41;;;;;;;12.82;3.65;;;;;;;;;;5064238;28;20101;-69
2023/05/19 09:25:22;;;;;;;11.27;4.30;;;;;;;;;;5072165;28;20043;-69
2023/05/19 09:27:48;;;;;;;12.90;4.55;;;;;;;;;;5073731;28;20074;-69
2023/05/19 09:30:15;;;;;;;12.05;4.18;;;;;;;;;;5076111;28;20073;-69
2023/05/19 09:32:42;;;;;;;11.60;4.15;;;;;;;;;;5095632;28;20040;-69
2023/05/19 09:35:08;;;;;;;8.93;3.45;;;;;;;;;;5078272;28;20120;-69
2023/05/19 09:37:34;;;;;;;9.93;3.17;;;;;;;;;;5078178;28;20040;-69
2023/05/19 09:40:00;;;;;;;12.00;2.95;;;;;;;;;;5097412;27;20513;-69
2023/05/19 09:42:28;;;;;;;10.45;3.38;;;;;;;;;;5077830;28;20040;-69
2023/05/19 09:45:00;;;;;;;7.93;3.13;;;;;;;;;;5078341;28;20043;-69
2023/05/19 09:47:26;;;;;;;9.45;3.28;;;;;;;;;;5076651;28;20163;-69
2023/05/19 09:49:53;;;;;;;11.95;3.95;;;;;;;;;;5099003;27;20135;-69
2023/05/19 09:52:21;;;;;;;8.13;2.90;;;;;;;;;;5075509;27;20093;-69
2023/05/19 09:54:50;;;;;;;9.88;3.53;;;;;;;;;;5099490;28;20131;-71
2023/05/19 09:57:16;;;;;;;6.50;2.60;;;;;;;;;;5096909;27;20036;-67
2023/05/19 09:59:43;;;;;;;10.60;3.35;;;;;;;;;;5100472;27;20060;-70
2023/05/19 10:02:14;;;;;;;8.43;3.33;;;;;;;;;;5080369;28;20043;-69
2023/05/19 10:04:41;;;;;;;8.85;3.30;;;;;;;;;;5076839;28;20051;-69
2023/05/19 10:07:09;;;;;;;10.23;3.13;;;;;;;;;;5101099;28;20028;-69
2023/05/19 10:09:36;;;;;;;9.18;2.83;;;;;;;;;;5077359;28;20536;-69
2023/05/19 10:12:03;;;;;;;9.98;3.70;;;;;;;;;;5083977;28;20036;-69
2023/05/19 10:14:29;;;;;;;7.95;2.90;;;;;;;;;;5083634;27;20048;-69
2023/05/19 10:16:57;;;;;;;10.70;3.40;;;;;;;;;;5102801;27;20039;-68
2023/05/19 10:19:24;;;;;;;7.65;2.50;;;;;;;;;;5098254;28;20043;-69
2023/05/19 10:21:51;;;;;;;7.75;2.50;;;;;;;;;;5079778;28;20093;-69
2023/05/19 10:24:17;;;;;;;8.68;2.88;;;;;;;;;;5081417;28;20055;-69
2023/05/19 10:26:45;;;;;;;12.65;3.35;;;;;;;;;;5094562;27;20097;-69
2023/05/19 10:29:13;;;;;;;9.07;2.90;;;;;;;;;;5099203;27;20109;-68
2023/05/19 10:31:40;;;;;;;6.40;2.80;;;;;;;;;;5080704;28;20406;-69
2023/05/19 10:34:20;;;;;;;8.30;3.40;;;;;;;;;;5097168;27;20028;-69
2023/05/19 10:36:49;;;;;;;9.45;2.92;;;;;;;;;;5096697;27;20052;-69
2023/05/19 10:39:21;;;;;;;6.53;2.78;;;;;;;;;;5079839;27;20418;-69
2023/05/19 10:42:01;;;;;;;6.47;2.92;;;;;;;;;;5077326;28;20044;-69
2023/05/19 10:44:39;;;;;;;9.88;2.97;;;;;;;;;;5079074;27;20052;-69
2023/05/19 10:47:07;;;;;;;6.40;2.45;;;;;;;;;;5065517;28;20406;-69
2023/05/19 10:49:35;;;;;;;9.95;3.38;;;;;;;;;;5094337;27;20044;-69
2023/05/19 10:52:01;;;;;;;7.95;3.38;;;;;;;;;;5093993;28;20032;-69
2023/05/19 10:54:42;;;;;;;9.40;3.20;;;;;;;;;;5097213;27;20035;-69
2023/05/19 10:57:08;;;;;;;7.53;2.97;;;;;;;;;;5058502;28;20140;-69
2023/05/19 10:59:36;;;;;;;8.38;2.65;;;;;;;;;;5075664;28;20039;-69
2023/05/19 11:02:03;;;;;;;8.85;3.20;;;;;;;;;;5078234;28;20113;-69
2023/05/19 11:04:46;;;;;;;7.57;2.70;;;;;;;;;;5095234;28;20101;-69
2023/05/19 11:07:19;;;;;;;7.85;2.65;;;;;;;;;;5094662;27;20058;-69
2023/05/19 11:09:50;;;;;;;10.07;2.57;;;;;;;;;;5100838;27;20093;-68
2023/05/19 11:12:20;;;;;;;6.75;2.40;;;;;;;;;;5097477;27;20326;-68
2023/05/19 11:14:46;;;;;;;6.60;2.35;;;;;;;;;;5068670;27;20433;-68
2023/05/19 11:17:14;;;;;;;6.25;2.33;;;;;;;;;;5096100;27;20046;-68
2023/05/19 11:19:50;;;;;;;7.68;2.92;;;;;;;;;;5080474;28;20423;-68
2023/05/19 11:22:16;;;;;;;7.88;2.58;;;;;;;;;;5081402;28;20085;-68
2023/05/19 11:24:45;;;;;;;7.95;2.65;;;;;;;;;;5078783;28;20048;-68
2023/05/19 11:27:30;;;;;;;10.68;2.70;;;;;;;;;;5059993;28;20108;-73
2023/05/19 11:29:58;;;;;;;7.90;2.85;;;;;;;;;;5081246;27;20040;-73
2023/05/19 11:32:28;;;;;;;9.70;3.13;;;;;;;;;;5080900;27;20373;-72
2023/05/19 11:34:55;;;;;;;10.35;3.25;;;;;;;;;;5102872;28;20088;-72
2023/05/19 11:37:21;;;;;;;7.43;2.72;;;;;;;;;;5082088;28;20071;-72
2023/05/19 11:39:47;;;;;;;6.97;2.35;;;;;;;;;;5064276;28;20082;-72
2023/05/19 11:42:13;;;;;;;7.07;2.80;;;;;;;;;;5076086;28;20048;-72
2023/05/19 11:44:41;;;;;;;10.63;4.68;;;;;;;;;;5082219;28;20348;-72
2023/05/19 11:47:08;;;;;;;9.25;2.60;;;;;;;;;;5096397;27;20113;-72
2023/05/19 11:49:34;;;;;;;7.40;2.55;;;;;;;;;;5084263;28;20071;-72
2023/05/19 11:52:01;;;;;;;8.77;2.80;;;;;;;;;;5083341;28;20343;-72
2023/05/19 11:54:35;;;;;;;8.02;3.20;;;;;;;;;;5100361;27;20040;-72
2023/05/19 11:57:02;;;;;;;7.00;2.90;;;;;;;;;;5071086;28;20044;-72
2023/05/19 11:59:30;;;;;;;5.75;2.55;;;;;;;;;;5084667;27;20110;-72
2023/05/19 12:01:56;;;;;;;8.05;2.83;;;;;;;;;;5083117;28;20124;-72
2023/05/19 12:04:22;;;;;;;10.73;3.13;;;;;;;;;;5096072;27;20632;-72
2023/05/19 12:06:48;;;;;;;9.05;3.78;;;;;;;;;;5076178;28;20040;-73
2023/05/19 12:09:15;;;;;;;7.68;3.00;;;;;;;;;;5082456;28;20048;-72
2023/05/19 12:11:41;;;;;;;10.32;2.90;;;;;;;;;;5078883;28;20055;-72
2023/05/19 12:14:10;;;;;;;7.82;3.05;;;;;;;;;;5082455;28;20432;-72
2023/05/19 12:16:36;;;;;;;9.65;2.83;;;;;;;;;;5105084;27;20043;-72
2023/05/19 12:19:06;;;;;;;9.13;3.53;;;;;;;;;;5082748;28;20081;-72
2023/05/19 12:21:32;;;;;;;10.07;3.17;;;;;;;;;;5087031;28;20050;-72
2023/05/19 12:23:59;;;;;;;7.53;2.60;;;;;;;;;;5101842;28;20087;-72
2023/05/19 12:26:25;;;;;;;11.60;3.72;;;;;;;;;;5099702;27;20040;-72
2023/05/19 12:28:52;;;;;;;13.13;3.40;;;;;;;;;;5098938;28;20071;-72
2023/05/19 12:31:19;;;;;;;9.18;2.90;;;;;;;;;;5080432;28;20048;-72
2023/05/19 12:33:50;;;;;;;9.05;3.42;;;;;;;;;;5084350;28;20040;-72
2023/05/19 12:36:17;;;;;;;9.63;3.75;;;;;;;;;;5099071;28;20055;-72
2023/05/19 12:38:44;;;;;;;10.90;2.97;;;;;;;;;;5101959;28;20040;-72
2023/05/19 12:41:11;;;;;;;8.07;3.38;;;;;;;;;;5100696;28;20036;-72
2023/05/19 12:43:38;;;;;;;9.50;3.28;;;;;;;;;;5100232;28;20423;-72
2023/05/19 12:46:11;;;;;;;7.20;3.15;;;;;;;;;;5079979;28;20499;-72
2023/05/19 12:48:43;;;;;;;11.45;3.20;;;;;;;;;;5081394;28;21361;-72
2023/05/19 12:51:10;;;;;;;7.25;3.15;;;;;;;;;;5102565;28;20392;-72
2023/05/19 12:53:37;;;;;;;8.57;3.33;;;;;;;;;;5101253;28;20084;-72
2023/05/19 12:56:11;;;;;;;8.45;3.53;;;;;;;;;;5077500;28;20387;-73
2023/05/19 12:58:38;;;;;;;9.88;3.80;;;;;;;;;;5085525;28;20246;-72
2023/05/19 13:01:06;;;;;;;14.18;4.57;;;;;;;;;;5079574;28;20123;-72
2023/05/19 13:03:32;;;;;;;7.80;3.40;;;;;;;;;;5080036;28;20047;-72
2023/05/19 13:05:59;;;;;;;10.23;3.63;;;;;;;;;;5097265;28;20056;-72
2023/05/19 13:08:26;;;;;;;11.13;3.97;;;;;;;;;;5076145;28;20122;-72
2023/05/19 13:10:53;;;;;;;9.32;3.42;;;;;;;;;;5074100;28;20128;-72
2023/05/19 13:13:19;;;;;;;8.80;3.38;;;;;;;;;;5079557;28;20445;-72
2023/05/19 13:15:47;;;;;;;8.75;3.20;;;;;;;;;;5081884;28;21729;-73
2023/05/19 13:18:13;;;;;;;10.75;3.75;;;;;;;;;;5080865;28;20120;-73
2023/05/19 13:20:40;;;;;;;10.15;3.78;;;;;;;;;;5104651;28;20204;-72
2023/05/19 13:23:07;;;;;;;10.25;3.85;;;;;;;;;;5080085;28;20052;-73
2023/05/19 13:25:33;;;;;;;13.07;3.45;;;;;;;;;;5102406;28;20420;-73
2023/05/19 13:28:02;;;;;;;9.48;3.20;;;;;;;;;;5076812;28;20365;-72
2023/05/19 13:30:28;;;;;;;11.50;3.33;;;;;;;;;;5080468;28;20047;-73
2023/05/19 13:32:54;;;;;;;9.45;3.03;;;;;;;;;;5073774;28;20052;-73
2023/05/19 13:35:21;;;;;;;10.50;3.55;;;;;;;;;;5078029;28;20130;-73
2023/05/19 13:37:47;;;;;;;7.38;3.08;;;;;;;;;;5070821;28;20119;-73
2023/05/19 13:40:14;;;;;;;9.68;3.55;;;;;;;;;;5082230;28;20112;-72
2023/05/19 13:42:41;;;;;;;7.45;3.28;;;;;;;;;;5074541;28;21304;-72
2023/05/19 13:45:07;;;;;;;10.43;3.53;;;;;;;;;;5069408;28;20097;-73
2023/05/19 13:47:33;;;;;;;9.35;2.97;;;;;;;;;;5078262;28;20412;-73
2023/05/19 13:50:00;;;;;;;11.30;3.75;;;;;;;;;;5080218;28;20104;-73
2023/05/19 13:52:26;;;;;;;11.80;3.22;;;;;;;;;;5077320;28;20036;-73
2023/05/19 13:54:55;;;;;;;7.88;2.63;;;;;;;;;;5077382;28;20052;-73
2023/05/19 13:57:21;;;;;;;7.68;3.40;;;;;;;;;;5078370;28;20140;-73
2023/05/19 13:59:47;;;;;;;9.18;2.90;;;;;;;;;;5076776;28;20511;-73
2023/05/19 14:02:13;;;;;;;12.50;3.30;;;;;;;;;;5078623;28;20376;-72
2023/05/19 14:04:40;;;;;;;10.38;3.03;;;;;;;;;;5075416;28;20476;-73
2023/05/19 14:07:06;;;;;;;11.55;3.20;;;;;;;;;;5076499;28;20040;-73
2023/05/19 14:09:32;;;;;;;13.35;3.47;;;;;;;;;;5077212;28;20443;-72
2023/05/19 14:11:59;;;;;;;12.13;3.53;;;;;;;;;;5082198;28;20229;-73
2023/05/19 14:14:25;;;;;;;10.55;3.78;;;;;;;;;;5080000;28;20067;-73
2023/05/19 14:16:51;;;;;;;9.77;3.60;;;;;;;;;;5073906;28;20134;-72
2023/05/19 14:19:17;;;;;;;11.75;3.42;;;;;;;;;;5074810;28;20032;-73
2023/05/19 14:21:43;;;;;;;9.35;2.90;;;;;;;;;;5077049;28;20063;-73
2023/05/19 14:24:09;;;;;;;9.35;3.47;;;;;;;;;;5081965;28;20119;-73
2023/05/19 14:26:36;;;;;;;12.73;3.60;;;;;;;;;;5077627;28;20079;-73
2023/05/19 14:29:02;;;;;;;10.95;3.88;;;;;;;;;;5083859;28;20044;-73
2023/05/19 14:31:28;;;;;;;8.90;3.05;;;;;;;;;;5068449;28;20041;-73
2023/05/19 14:33:55;;;;;;;8.40;2.78;;;;;;;;;;5081066;28;20131;-73
2023/05/19 14:36:21;;;;;;;7.60;3.05;;;;;;;;;;5094404;27;20056;-73